createdAt,value
2023-03-12T00:02:01.892Z,10.35
2023-03-12T00:04:29.145Z,6.05
2023-03-12T00:06:55.977Z,3.13
2023-03-12T00:09:23.491Z,4.80
2023-03-12T00:11:50.319Z,4.57
2023-03-12T00:14:17.406Z,4.82
2023-03-12T00:16:50.209Z,5.22
2023-03-12T00:19:17.217Z,4.38
2023-03-12T00:21:44.097Z,3.92
2023-03-12T00:24:11.132Z,2.83
2023-03-12T00:26:37.948Z,3.55
2023-03-12T00:29:05.084Z,4.50
2023-03-12T00:31:33.634Z,3.67
2023-03-12T00:34:02.262Z,3.97
2023-03-12T00:36:31.285Z,3.30
2023-03-12T00:38:59.603Z,4.97
2023-03-12T00:41:27.571Z,4.20
2023-03-12T00:43:54.655Z,6.35
2023-03-12T00:46:21.827Z,3.28
2023-03-12T00:48:49.131Z,3.30
2023-03-12T00:51:15.992Z,3.13
2023-03-12T00:53:43.131Z,5.60
2023-03-12T00:56:09.986Z,5.82
2023-03-12T00:58:37.144Z,4.95
2023-03-12T01:01:05.102Z,4.82
2023-03-12T01:03:32.496Z,4.72
2023-03-12T01:05:59.255Z,3.78
2023-03-12T01:08:26.567Z,5.80
2023-03-12T01:10:53.579Z,2.67
2023-03-12T01:13:20.845Z,5.03
2023-03-12T01:15:47.645Z,3.15
2023-03-12T01:18:14.758Z,4.93
2023-03-12T01:20:41.766Z,4.20
2023-03-12T01:23:08.990Z,2.28
2023-03-12T01:25:36.746Z,2.40
2023-03-12T01:28:04.099Z,2.95
2023-03-12T01:30:31.406Z,2.00
2023-03-12T01:32:58.724Z,3.10
2023-03-12T01:35:31.719Z,3.25
2023-03-12T01:37:58.854Z,3.65
2023-03-12T01:40:27.792Z,3.33
2023-03-12T01:42:56.901Z,2.60
2023-03-12T01:46:00.902Z,3.58
2023-03-12T01:48:44.815Z,4.53
2023-03-12T01:51:14.189Z,3.75
2023-03-12T01:53:45.011Z,3.60
2023-03-12T01:56:13.063Z,3.90
2023-03-12T01:58:44.185Z,3.45
2023-03-12T02:01:10.990Z,3.05
2023-03-12T02:03:38.223Z,3.45
2023-03-12T02:06:13.401Z,3.10
2023-03-12T02:08:47.661Z,2.53
2023-03-12T02:11:14.803Z,2.75
2023-03-12T02:13:42.091Z,4.65
2023-03-12T02:16:09.377Z,4.90
2023-03-12T02:18:36.623Z,6.40
2023-03-12T02:21:27.447Z,6.22
2023-03-12T02:24:55.817Z,4.43
2023-03-12T02:27:23.574Z,3.60
2023-03-12T02:29:51.028Z,2.60
2023-03-12T02:32:23.387Z,3.20
2023-03-12T02:34:50.835Z,3.92
2023-03-12T02:37:18.961Z,3.33
2023-03-12T02:39:55.003Z,4.65
2023-03-12T02:42:23.959Z,2.28
2023-03-12T02:44:51.127Z,4.07
2023-03-12T02:47:17.921Z,3.60
2023-03-12T02:49:44.950Z,4.65
2023-03-12T02:52:11.750Z,5.03
2023-03-12T02:54:38.840Z,2.92
2023-03-12T02:57:05.615Z,3.95
2023-03-12T02:59:32.625Z,4.57
2023-03-12T03:02:00.682Z,3.65
2023-03-12T03:04:29.652Z,5.50
2023-03-12T03:06:56.546Z,4.60
2023-03-12T03:09:24.616Z,3.95
2023-03-12T03:11:51.893Z,4.78
2023-03-12T03:14:19.396Z,4.88
2023-03-12T03:16:46.150Z,6.85
2023-03-12T03:19:13.233Z,5.57
2023-03-12T03:21:40.214Z,4.35
2023-03-12T03:24:09.877Z,5.22
2023-03-12T03:26:36.821Z,7.63
2023-03-12T03:29:04.040Z,7.30
2023-03-12T03:31:30.977Z,7.10
2023-03-12T03:33:58.168Z,3.78
2023-03-12T03:36:24.948Z,5.97
2023-03-12T03:38:51.992Z,7.97
2023-03-12T03:41:20.378Z,8.00
2023-03-12T03:43:47.807Z,5.70
2023-03-12T03:46:15.778Z,10.50
2023-03-12T03:48:43.138Z,9.43
2023-03-12T03:51:11.366Z,5.43
2023-03-12T03:53:38.418Z,7.93
2023-03-12T03:56:16.029Z,5.20
2023-03-12T03:58:43.416Z,8.10
2023-03-12T04:01:12.557Z,5.82
2023-03-12T04:03:39.968Z,5.40
2023-03-12T04:06:08.158Z,6.05
2023-03-12T04:08:37.254Z,7.15
2023-03-12T04:11:21.201Z,4.82
2023-03-12T04:13:49.222Z,7.55
2023-03-12T04:16:17.020Z,5.63
2023-03-12T04:18:44.944Z,6.40
2023-03-12T04:21:13.964Z,8.75
2023-03-12T04:23:41.463Z,7.32
2023-03-12T04:26:08.328Z,7.22
2023-03-12T04:28:36.431Z,7.07
2023-03-12T04:31:06.991Z,5.75
2023-03-12T04:34:14.429Z,7.13
2023-03-12T04:36:41.668Z,5.78
2023-03-12T04:39:08.409Z,8.82
2023-03-12T04:41:36.717Z,6.95
2023-03-12T04:44:04.117Z,8.63
2023-03-12T04:46:31.340Z,6.75
2023-03-12T04:48:58.273Z,6.68
2023-03-12T04:51:25.432Z,8.55
2023-03-12T04:53:52.230Z,7.70
2023-03-12T04:56:19.295Z,7.53
2023-03-12T04:58:46.586Z,7.38
2023-03-12T05:01:25.478Z,8.05
2023-03-12T05:03:53.404Z,9.20
2023-03-12T05:06:21.662Z,9.35
2023-03-12T05:08:48.762Z,6.57
2023-03-12T05:11:16.733Z,8.35
2023-03-12T05:13:43.738Z,8.70
2023-03-12T05:16:12.014Z,10.52
2023-03-12T05:18:38.892Z,12.13
2023-03-12T05:21:15.064Z,8.60
2023-03-12T05:23:43.113Z,12.10
2023-03-12T05:26:20.827Z,7.25
2023-03-12T05:28:47.853Z,8.13
2023-03-12T05:31:16.080Z,12.88
2023-03-12T05:33:43.362Z,9.85
2023-03-12T05:36:11.458Z,7.60
2023-03-12T05:38:38.837Z,8.55
2023-03-12T05:41:06.755Z,8.40
2023-03-12T05:43:34.461Z,11.93
2023-03-12T05:46:04.054Z,11.80
2023-03-12T05:48:31.239Z,11.25
2023-03-12T05:50:58.538Z,10.88
2023-03-12T05:53:25.265Z,12.98
2023-03-12T05:55:52.601Z,9.68
2023-03-12T05:58:22.080Z,10.57
2023-03-12T06:00:49.579Z,10.73
2023-03-12T06:03:16.356Z,9.65
2023-03-12T06:05:44.536Z,11.18
2023-03-12T06:08:11.366Z,9.95
2023-03-12T06:10:39.297Z,12.15
2023-03-12T06:13:06.747Z,10.15
2023-03-12T06:15:33.814Z,8.27
2023-03-12T06:18:00.633Z,8.15
2023-03-12T06:20:27.737Z,8.57
2023-03-12T06:22:54.479Z,9.85
2023-03-12T06:25:21.511Z,12.55
2023-03-12T06:27:48.299Z,9.07
2023-03-12T06:30:15.952Z,9.85
2023-03-12T06:32:42.852Z,9.85
2023-03-12T06:35:10.222Z,11.07
2023-03-12T06:37:37.090Z,13.23
2023-03-12T06:40:05.129Z,9.10
2023-03-12T06:42:32.353Z,11.18
2023-03-12T06:44:59.369Z,9.40
2023-03-12T06:47:26.121Z,9.02
2023-03-12T06:49:53.225Z,12.30
2023-03-12T06:52:20.015Z,10.10
2023-03-12T06:54:47.057Z,8.85
2023-03-12T06:57:13.885Z,8.95
2023-03-12T06:59:40.929Z,10.93
2023-03-12T07:02:11.433Z,10.45
2023-03-12T07:04:38.590Z,10.60
2023-03-12T07:07:05.470Z,8.15
2023-03-12T07:09:32.553Z,10.77
2023-03-12T07:11:59.756Z,9.68
2023-03-12T07:14:26.971Z,11.43
2023-03-12T07:16:57.178Z,7.97
2023-03-12T07:19:24.258Z,10.73
2023-03-12T07:21:51.011Z,8.13
2023-03-12T07:24:18.103Z,9.43
2023-03-12T07:26:46.072Z,9.40
2023-03-12T07:29:13.269Z,7.88
2023-03-12T07:31:41.113Z,8.65
2023-03-12T07:34:08.341Z,10.15
2023-03-12T07:36:35.369Z,7.95
2023-03-12T07:39:02.597Z,8.70
2023-03-12T07:41:29.504Z,8.75
2023-03-12T07:43:56.728Z,7.78
2023-03-12T07:46:23.545Z,8.40
2023-03-12T07:48:50.843Z,10.55
2023-03-12T07:51:17.789Z,9.30
2023-03-12T07:53:44.871Z,8.70
2023-03-12T07:56:11.845Z,7.85
2023-03-12T07:58:39.394Z,8.52
2023-03-12T08:01:06.862Z,9.30
2023-03-12T08:03:34.258Z,9.43
2023-03-12T08:06:03.745Z,8.77
2023-03-12T08:08:31.944Z,7.32
2023-03-12T08:11:00.010Z,8.07
2023-03-12T08:13:27.830Z,6.70
2023-03-12T08:15:54.755Z,8.27
2023-03-12T08:18:22.396Z,8.27
2023-03-12T08:20:54.026Z,9.40
2023-03-12T08:23:22.081Z,8.60
2023-03-12T08:25:49.944Z,9.30
2023-03-12T08:28:18.020Z,8.02
2023-03-12T08:30:56.199Z,7.75
2023-03-12T08:33:23.333Z,7.78
2023-03-12T08:35:50.698Z,7.15
2023-03-12T08:38:18.250Z,7.70
2023-03-12T08:40:45.142Z,9.07
2023-03-12T08:43:12.516Z,6.68
2023-03-12T08:45:39.396Z,9.40
2023-03-12T08:48:07.116Z,8.40
2023-03-12T08:50:34.006Z,8.13
2023-03-12T08:53:01.104Z,7.78
2023-03-12T08:55:28.180Z,8.10
2023-03-12T08:57:56.206Z,10.02
2023-03-12T09:00:25.784Z,8.18
2023-03-12T09:02:54.195Z,8.00
2023-03-12T09:05:21.049Z,7.10
2023-03-12T09:07:50.041Z,7.95
2023-03-12T09:10:18.035Z,8.38
2023-03-12T09:12:45.150Z,7.85
2023-03-12T09:15:12.087Z,7.38
2023-03-12T09:17:39.476Z,8.77
2023-03-12T09:20:08.485Z,8.18
2023-03-12T09:22:37.029Z,10.32
2023-03-12T09:25:10.070Z,6.57
2023-03-12T09:27:38.989Z,9.13
2023-03-12T09:30:07.963Z,7.63
2023-03-12T09:32:35.767Z,6.60
2023-03-12T09:35:02.788Z,6.30
2023-03-12T09:37:32.265Z,5.60
2023-03-12T09:39:59.386Z,7.70
2023-03-12T09:42:38.549Z,7.43
2023-03-12T09:45:09.054Z,6.10
2023-03-12T09:47:43.465Z,8.60
2023-03-12T09:50:33.643Z,6.50
2023-03-12T09:53:14.809Z,8.00
2023-03-12T09:55:45.289Z,6.40
2023-03-12T09:58:21.430Z,6.53
2023-03-12T10:00:48.237Z,6.53
2023-03-12T10:03:41.866Z,7.97
2023-03-12T10:06:14.688Z,3.35
2023-03-12T10:08:52.278Z,6.07
2023-03-12T10:11:36.553Z,6.18
2023-03-12T10:14:23.843Z,6.88
2023-03-12T10:17:17.920Z,4.90
2023-03-12T10:20:18.296Z,5.70
2023-03-12T10:23:10.004Z,6.75
2023-03-12T10:25:54.641Z,5.93
2023-03-12T10:28:41.818Z,6.50
2023-03-12T10:31:29.007Z,4.35
2023-03-12T10:33:58.113Z,5.22
2023-03-12T10:36:38.627Z,5.68
2023-03-12T10:39:15.839Z,6.65
2023-03-12T10:41:45.166Z,6.35
2023-03-12T10:44:20.231Z,5.07
2023-03-12T10:46:59.891Z,4.82
2023-03-12T10:49:30.241Z,5.70
2023-03-12T10:52:21.851Z,4.75
2023-03-12T10:54:51.577Z,6.38
2023-03-12T10:57:19.594Z,5.15
2023-03-12T10:59:48.757Z,4.85
2023-03-12T11:02:21.770Z,4.20
2023-03-12T11:04:53.201Z,5.40
2023-03-12T11:07:33.073Z,4.00
2023-03-12T11:10:08.602Z,5.55
2023-03-12T11:12:38.205Z,4.40
2023-03-12T11:15:37.224Z,4.32
2023-03-12T11:18:25.408Z,4.32
2023-03-12T11:21:14.286Z,4.50
2023-03-12T11:23:48.152Z,3.67
2023-03-12T11:26:22.249Z,3.03
2023-03-12T11:28:52.189Z,2.92
2023-03-12T11:31:28.501Z,2.70
2023-03-12T11:34:03.040Z,3.25
2023-03-12T11:36:59.879Z,3.83
2023-03-12T11:40:09.825Z,3.75
2023-03-12T11:42:39.470Z,4.00
2023-03-12T11:45:33.613Z,4.28
2023-03-12T11:48:25.975Z,3.47
2023-03-12T11:51:07.901Z,2.92
2023-03-12T11:53:53.209Z,3.72
2023-03-12T11:56:53.755Z,4.13
2023-03-12T11:59:32.468Z,3.50
2023-03-12T12:02:43.589Z,3.97
2023-03-12T12:05:27.598Z,2.60
2023-03-12T12:08:12.207Z,4.43
2023-03-12T12:10:54.121Z,3.00
2023-03-12T12:13:42.684Z,2.83
2023-03-12T12:16:38.503Z,3.10
2023-03-12T12:19:40.509Z,3.45
2023-03-12T12:22:20.240Z,3.00
2023-03-12T12:24:59.573Z,2.22
2023-03-12T12:27:29.766Z,3.03
2023-03-12T12:30:03.064Z,3.55
2023-03-12T12:33:11.878Z,2.92
2023-03-12T12:35:41.797Z,2.08
2023-03-12T12:38:18.399Z,2.50
2023-03-12T12:40:51.836Z,2.50
2023-03-12T12:43:21.543Z,2.58
2023-03-12T12:45:52.368Z,2.40
2023-03-12T12:48:40.439Z,3.75
2023-03-12T12:51:09.393Z,2.00
2023-03-12T12:53:57.732Z,2.03
2023-03-12T12:56:50.964Z,2.80
2023-03-12T12:59:26.254Z,2.63
2023-03-12T13:01:56.251Z,1.83
2023-03-12T13:04:33.415Z,5.80
2023-03-12T13:07:12.545Z,3.88
2023-03-12T13:09:48.858Z,2.92
2023-03-12T13:12:25.014Z,1.42
2023-03-12T13:14:53.754Z,2.50
2023-03-12T13:17:35.279Z,2.13
2023-03-12T13:20:08.284Z,2.53
2023-03-12T13:25:17.723Z,2.05
2023-03-12T13:27:46.174Z,1.77
2023-03-12T13:30:34.531Z,2.08
2023-03-12T13:33:01.923Z,2.97
2023-03-12T13:36:06.202Z,2.47
2023-03-12T13:38:52.847Z,1.88
2023-03-12T13:41:45.525Z,1.45
2023-03-12T13:44:28.955Z,1.50
2023-03-12T13:47:10.887Z,2.40
2023-03-12T13:49:51.927Z,3.20
2023-03-12T13:52:24.764Z,3.70
2023-03-12T13:55:46.135Z,3.78
2023-03-12T13:58:21.434Z,3.72
2023-03-12T14:01:17.583Z,3.22
2023-03-12T14:03:52.493Z,3.15
2023-03-12T14:06:25.183Z,5.45
2023-03-12T14:09:10.047Z,2.90
2023-03-12T14:11:58.940Z,2.50
2023-03-12T14:14:50.487Z,4.05
2023-03-12T14:17:23.590Z,4.28
2023-03-12T14:20:14.509Z,1.70
2023-03-12T14:22:44.962Z,2.45
2023-03-12T14:25:24.510Z,3.90
2023-03-12T14:27:51.683Z,4.13
2023-03-12T14:30:23.875Z,2.55
2023-03-12T14:32:59.586Z,2.30
2023-03-12T14:35:43.566Z,4.82
2023-03-12T14:38:25.922Z,2.70
2023-03-12T14:41:03.393Z,3.95
2023-03-12T14:43:35.201Z,3.58
2023-03-12T14:46:14.376Z,3.58
2023-03-12T14:48:41.486Z,3.33
2023-03-12T14:51:08.452Z,2.25
2023-03-12T14:53:39.921Z,3.42
2023-03-12T14:56:13.030Z,2.78
2023-03-12T14:58:48.630Z,3.25
2023-03-12T15:01:19.353Z,1.88
2023-03-12T15:04:08.357Z,2.53
2023-03-12T15:06:44.427Z,2.20
2023-03-12T15:09:20.632Z,2.22
2023-03-12T15:11:55.110Z,2.92
2023-03-12T15:14:24.349Z,2.05
2023-03-12T15:16:52.039Z,3.08
2023-03-12T15:19:25.175Z,2.42
2023-03-12T15:21:52.456Z,2.63
2023-03-12T15:24:19.986Z,3.03
2023-03-12T15:26:46.847Z,1.55
2023-03-12T15:29:13.857Z,3.10
2023-03-12T15:31:49.944Z,1.73
2023-03-12T15:34:33.248Z,2.60
2023-03-12T15:37:23.770Z,2.55
2023-03-12T15:39:53.664Z,2.00
2023-03-12T15:42:24.082Z,2.35
2023-03-12T15:44:57.229Z,2.25
2023-03-12T15:47:30.057Z,2.45
2023-03-12T15:50:03.350Z,2.85
2023-03-12T15:52:32.908Z,3.22
2023-03-12T15:55:12.192Z,5.57
2023-03-12T15:57:48.246Z,2.95
2023-03-12T16:00:20.422Z,2.65
2023-03-12T16:03:06.116Z,2.85
2023-03-12T16:05:36.433Z,2.75
2023-03-12T16:08:15.760Z,2.70
2023-03-12T16:10:43.466Z,3.67
2023-03-12T16:13:14.289Z,3.05
2023-03-12T16:15:41.746Z,3.60
2023-03-12T16:18:17.563Z,3.92
2023-03-12T16:20:45.765Z,2.40
2023-03-12T16:23:13.178Z,2.25
2023-03-12T16:25:46.357Z,2.83
2023-03-12T16:28:18.459Z,2.73
2023-03-12T16:30:45.621Z,3.35
2023-03-12T16:33:17.528Z,4.30
2023-03-12T16:35:45.206Z,3.42
2023-03-12T16:38:12.114Z,4.00
2023-03-12T16:40:44.028Z,4.60
2023-03-12T16:43:20.230Z,4.80
2023-03-12T16:45:48.652Z,7.00
2023-03-12T16:48:18.951Z,5.63
2023-03-12T16:50:51.288Z,2.95
2023-03-12T16:53:19.013Z,3.10
2023-03-12T16:56:06.692Z,4.28
2023-03-12T16:58:33.658Z,2.72
2023-03-12T17:01:00.793Z,5.07
2023-03-12T17:03:37.694Z,4.35
2023-03-12T17:06:07.076Z,4.47
2023-03-12T17:08:35.933Z,4.75
2023-03-12T17:11:04.447Z,4.25
2023-03-12T17:13:31.221Z,5.15
2023-03-12T17:15:58.833Z,10.57
2023-03-12T17:18:25.742Z,6.75
2023-03-12T17:20:52.843Z,12.57
2023-03-12T17:23:19.754Z,7.05
2023-03-12T17:25:47.361Z,6.82
2023-03-12T17:28:15.546Z,4.70
2023-03-12T17:30:43.220Z,13.30
2023-03-12T17:33:13.799Z,24.65
2023-03-12T17:35:41.596Z,14.90
2023-03-12T17:38:09.472Z,15.38
2023-03-12T17:40:41.477Z,16.23
2023-03-12T17:43:08.357Z,10.73
2023-03-12T17:45:36.991Z,8.38
2023-03-12T17:48:04.446Z,16.52
2023-03-12T17:50:31.695Z,8.50
2023-03-12T17:52:58.470Z,10.32
2023-03-12T17:55:25.534Z,45.30
2023-03-12T17:57:52.373Z,22.65
2023-03-12T18:00:21.939Z,24.98
2023-03-12T18:02:49.537Z,19.00
2023-03-12T18:05:16.666Z,25.92
2023-03-12T18:07:43.424Z,41.65
2023-03-12T18:10:11.179Z,33.10
2023-03-12T18:12:39.018Z,40.90
2023-03-12T18:15:08.518Z,27.95
2023-03-12T18:17:35.311Z,51.53
2023-03-12T18:20:09.802Z,38.75
2023-03-12T18:22:38.832Z,10.18
2023-03-12T18:25:07.371Z,18.50
2023-03-12T18:27:34.830Z,20.27
2023-03-12T18:30:02.318Z,11.93
2023-03-12T18:32:29.224Z,10.95
2023-03-12T18:34:56.832Z,9.13
2023-03-12T18:37:23.677Z,9.48
2023-03-12T18:39:50.755Z,6.97
2023-03-12T18:42:17.621Z,8.70
2023-03-12T18:44:44.778Z,9.73
2023-03-12T18:47:11.648Z,10.38
2023-03-12T18:49:38.673Z,6.50
2023-03-12T18:52:05.689Z,7.60
2023-03-12T18:54:33.729Z,6.78
2023-03-12T18:57:00.906Z,6.88
2023-03-12T18:59:29.122Z,6.03
2023-03-12T19:01:57.153Z,9.93
2023-03-12T19:04:25.812Z,6.22
2023-03-12T19:06:52.771Z,11.75
2023-03-12T19:09:20.492Z,7.43
2023-03-12T19:11:48.170Z,8.32
2023-03-12T19:14:15.636Z,8.65
2023-03-12T19:16:42.651Z,5.47
2023-03-12T19:19:09.764Z,7.55
2023-03-12T19:21:36.516Z,6.53
2023-03-12T19:24:03.685Z,6.57
2023-03-12T19:26:30.434Z,9.90
2023-03-12T19:28:57.451Z,10.32
2023-03-12T19:31:25.470Z,8.48
2023-03-12T19:33:52.856Z,8.27
2023-03-12T19:36:19.740Z,11.20
2023-03-12T19:38:46.838Z,12.38
2023-03-12T19:41:13.754Z,11.10
2023-03-12T19:43:41.298Z,10.75
2023-03-12T19:46:08.281Z,7.85
2023-03-12T19:48:35.450Z,8.68
2023-03-12T19:51:07.757Z,13.77
2023-03-12T19:53:35.143Z,15.80
2023-03-12T19:56:02.283Z,16.10
2023-03-12T19:58:29.449Z,12.18
2023-03-12T20:01:01.032Z,11.70
2023-03-12T20:03:28.690Z,11.50
2023-03-12T20:05:56.689Z,15.32
2023-03-12T20:08:26.152Z,14.98
2023-03-12T20:10:52.924Z,15.25
2023-03-12T20:13:20.287Z,16.85
2023-03-12T20:15:48.526Z,16.63
2023-03-12T20:18:16.154Z,12.30
2023-03-12T20:20:43.344Z,26.50
2023-03-12T20:23:10.494Z,21.67
2023-03-12T20:25:41.322Z,23.48
2023-03-12T20:28:09.321Z,18.02
2023-03-12T20:30:37.635Z,16.80
2023-03-12T20:33:05.967Z,16.05
2023-03-12T20:35:32.910Z,24.25
2023-03-12T20:38:00.247Z,29.88
2023-03-12T20:40:27.275Z,22.17
2023-03-12T20:42:54.304Z,23.23
2023-03-12T20:45:24.021Z,23.58
2023-03-12T20:47:51.149Z,29.60
2023-03-12T20:50:17.989Z,22.52
2023-03-12T20:52:45.189Z,23.35
2023-03-12T20:55:11.993Z,23.30
2023-03-12T20:57:39.053Z,28.90
2023-03-12T21:00:06.462Z,22.25
2023-03-12T21:02:34.241Z,24.80
2023-03-12T21:05:01.079Z,24.08
2023-03-12T21:07:28.230Z,27.55
2023-03-12T21:09:55.156Z,16.63
2023-03-12T21:12:24.818Z,25.15
2023-03-12T21:14:51.585Z,27.00
2023-03-12T21:17:18.664Z,26.38
2023-03-12T21:19:46.517Z,18.10
2023-03-12T21:22:14.194Z,28.45
2023-03-12T21:24:41.209Z,26.15
2023-03-12T21:27:11.350Z,19.08
2023-03-12T21:29:38.255Z,20.00
2023-03-12T21:32:05.514Z,28.50
2023-03-12T21:34:32.351Z,26.80
2023-03-12T21:36:59.486Z,28.95
2023-03-12T21:39:27.249Z,30.50
2023-03-12T21:41:54.409Z,28.52
2023-03-12T21:44:21.210Z,26.50
2023-03-12T21:46:48.382Z,26.73
2023-03-12T21:49:17.978Z,26.23
2023-03-12T21:51:45.323Z,22.20
2023-03-12T21:54:12.155Z,24.05
2023-03-12T21:56:41.681Z,21.73
2023-03-12T21:59:08.442Z,25.77
2023-03-12T22:01:35.615Z,23.10
2023-03-12T22:04:03.309Z,24.77
2023-03-12T22:06:30.489Z,29.52
2023-03-12T22:08:57.582Z,15.25
2023-03-12T22:11:24.694Z,25.33
2023-03-12T22:13:51.462Z,26.73
2023-03-12T22:16:18.599Z,17.98
2023-03-12T22:18:46.418Z,17.33
2023-03-12T22:21:21.669Z,22.85
2023-03-12T22:23:53.094Z,16.25
2023-03-12T22:26:22.377Z,19.42
2023-03-12T22:28:51.026Z,23.85
2023-03-12T22:31:19.653Z,19.30
2023-03-12T22:33:46.523Z,22.73
2023-03-12T22:36:15.484Z,19.52
2023-03-12T22:38:42.616Z,20.02
2023-03-12T22:41:27.682Z,16.65
2023-03-12T22:43:56.848Z,21.02
2023-03-12T22:46:25.683Z,18.17
2023-03-12T22:48:55.336Z,22.08
2023-03-12T22:51:23.505Z,18.38
2023-03-12T22:53:50.349Z,16.17
2023-03-12T22:56:18.045Z,22.83
2023-03-12T22:58:45.245Z,15.07
2023-03-12T23:01:15.070Z,19.48
2023-03-12T23:03:43.794Z,24.55
2023-03-12T23:06:16.465Z,20.55
2023-03-12T23:08:45.650Z,14.75
2023-03-12T23:11:14.594Z,17.63
2023-03-12T23:13:44.411Z,19.95
2023-03-12T23:16:15.554Z,20.10
2023-03-12T23:18:43.039Z,15.25
2023-03-12T23:21:13.579Z,15.10
2023-03-12T23:23:43.503Z,18.63
2023-03-12T23:26:17.006Z,18.55
2023-03-12T23:28:44.530Z,13.38
2023-03-12T23:31:11.692Z,10.23
2023-03-12T23:33:38.730Z,14.15
2023-03-12T23:36:12.511Z,10.48
2023-03-12T23:38:39.800Z,13.38
2023-03-12T23:41:16.553Z,19.23
2023-03-12T23:43:44.351Z,10.95
2023-03-12T23:46:12.837Z,11.27
2023-03-12T23:48:41.187Z,11.88
2023-03-12T23:51:22.955Z,10.15
2023-03-12T23:53:51.640Z,12.55
2023-03-12T23:56:21.715Z,15.07
2023-03-12T23:58:49.750Z,16.65
